Latest Weather Observations for Davis*

IDT60801

Issued at 8:31 am EST Monday 1 May 2017 (issued every 30 minutes, with the page automatically refreshed every 10 minutes)

About weather observations | Map of weather stations | Latest weather observations for ANT | Other Formats
Station Details ID: 300000 Name: DAVIS Lat: -68.57 Lon: 77.97 Height: 18.0 m
Data from the previous 72 hours. | See also: Recent months at Davis*
Date/Time
EST
Temp
°C
App
Temp
°C
Dew
Point
°C
Rel
Hum
%
Delta-T
°C
Wind Press
QNH
hPa
Press
MSL
hPa
Rain since
9am
mm
Dir  Spd
km/h
Gust
km/h
Spd
kts
Gust
kts
01/08:30am -4.8 -25.3 -7.4 82 - ENE 93 120 50 65 953.7 - -
01/08:00am -5.0 -26.5 -7.7 81 - ENE 98 124 53 67 953.2 - -
01/07:30am -5.2 -27.5 -7.8 82 - ENE 102 135 55 73 951.4 - -
01/07:00am -5.6 -27.5 -8.6 79 - ENE 100 133 54 72 952.0 952.3 -
01/06:30am -5.5 -26.6 -8.1 82 - ENE 96 133 52 72 951.7 - -
01/06:00am -5.4 -27.7 -8.3 80 - ENE 102 137 55 74 952.3 - -
01/05:39am -5.5 -29.5 -8.2 81 - ENE 111 130 60 70 951.3 - -
01/05:30am -5.6 -25.8 -8.2 82 - ENE 91 122 49 66 952.5 - -
01/05:27am -5.8 -26.0 -7.8 86 - ENE 91 122 49 66 952.1 - -
01/05:24am -5.9 -24.6 -8.0 85 - NE 83 102 45 55 953.0 - -
01/05:00am -5.9 -28.9 -7.9 86 - ENE 106 132 57 71 951.2 - -
01/04:30am -5.8 -26.3 -7.8 86 - ENE 93 122 50 66 952.5 - -
01/04:00am -5.9 -27.8 -7.6 88 - ENE 100 145 54 78 951.7 951.9 -
01/03:49am -6.0 -29.0 -7.4 90 - ENE 106 137 57 74 950.8 - -
01/03:43am -6.1 -28.0 -7.5 90 - ENE 100 119 54 64 951.8 - -
01/03:30am -6.0 -24.1 -7.7 88 - ENE 80 117 43 63 953.3 - -
01/03:27am -6.3 -22.9 -7.8 89 - ENE 72 102 39 55 953.7 - -
01/03:09am -6.3 -27.2 -7.7 90 - ENE 95 124 51 67 952.8 - -
01/03:00am -6.3 -25.7 -8.0 88 - ENE 87 115 47 62 954.8 - -
01/02:55am -6.4 -26.6 -7.9 89 - ENE 91 115 49 62 953.7 - -
01/02:35am -6.1 -21.8 -8.5 83 - ENE 67 107 36 58 955.7 - -
01/02:30am -6.1 -21.4 -9.0 80 - ENE 65 87 35 47 957.1 - -
01/02:19am -5.8 -18.7 -9.0 78 - E 52 70 28 38 958.7 - -
01/02:17am -5.7 -18.9 -8.9 78 - E 54 69 29 37 958.8 - -
01/02:12am -5.8 -24.0 -8.7 80 - ENE 80 120 43 65 958.2 - -
01/02:00am -6.1 -24.2 -7.9 87 - ENE 80 113 43 61 956.2 - -
01/01:56am -6.0 -22.2 -8.0 86 - ENE 70 98 38 53 956.8 - -
01/01:30am -5.7 -21.7 -8.4 81 - ENE 69 104 37 56 959.3 - -
01/01:00am -6.0 -23.8 -8.9 80 - E 78 106 42 57 959.5 959.7 -
01/12:40am -6.1 -22.7 -8.8 81 - E 72 106 39 57 959.7 - -
01/12:30am -5.8 -20.4 -9.5 75 - E 61 85 33 46 961.4 - -
01/12:00am -6.0 -22.1 -9.0 79 - E 69 96 37 52 961.8 - -
 
Date/Time
EST
Temp
°C
App
Temp
°C
Dew
Point
°C
Rel
Hum
%
Delta-T
°C
Wind Press
QNH
hPa
Press
MSL
hPa
Rain since
9am
mm
Dir  Spd
km/h
Gust
km/h
Spd
kts
Gust
kts
30/11:43pm -6.0 -23.4 -8.9 80 - E 76 96 41 52 961.8 - -
30/11:41pm -6.0 -24.7 -8.6 82 - E 83 96 45 52 961.2 - -
30/11:30pm -5.9 -20.5 -9.8 74 - E 61 80 33 43 961.9 - -
30/11:01pm -6.0 -22.1 -8.9 80 - E 69 89 37 48 962.4 - -
30/11:00pm -6.0 -21.7 -8.9 80 - E 67 82 36 44 962.4 - -
30/10:59pm -6.0 -21.7 -9.0 79 - E 67 82 36 44 962.6 - -
30/10:30pm -6.4 -25.9 -8.6 84 - ENE 87 111 47 60 961.8 - -
30/10:20pm -6.2 -25.3 -8.3 85 - ENE 85 113 46 61 961.4 - -
30/10:00pm -6.4 -22.6 -9.9 76 - E 69 91 37 49 963.6 963.8 -
30/09:31pm -6.5 -22.7 -10.0 76 - ENE 69 87 37 47 964.9 - -
30/09:30pm -6.7 -22.9 -10.2 76 - ENE 69 83 37 45 965.2 - -
30/09:29pm -6.4 -22.6 -10.3 74 - ENE 69 83 37 45 965.0 - -
30/09:00pm -5.9 -18.5 -11.0 67 - E 50 70 27 38 966.6 - -
30/08:30pm -5.8 -17.7 -11.1 66 - E 46 67 25 36 968.3 - -
30/08:12pm -5.8 -18.4 -10.6 69 - ENE 50 72 27 39 968.2 - -
30/08:00pm -6.0 -18.6 -11.1 67 - ENE 50 67 27 36 969.1 - -
30/07:30pm -5.9 -20.2 -10.5 70 - ENE 59 78 32 42 968.9 - -
30/07:00pm -6.1 -19.5 -11.0 68 - ENE 54 78 29 42 969.5 969.7 -
30/06:30pm -6.1 -18.4 -11.2 67 - ENE 48 69 26 37 970.7 - -
30/06:17pm -6.2 -20.0 -11.3 67 - ENE 56 74 30 40 970.9 - -
30/06:12pm -6.1 -20.1 -11.4 66 - ENE 57 69 31 37 970.9 - -
30/06:00pm -6.1 -16.3 -12.2 62 - E 37 59 20 32 971.7 - -
30/05:31pm -6.1 -16.0 -12.4 61 - E 35 54 19 29 972.1 - -
30/05:30pm -6.1 -16.0 -12.6 60 - E 35 48 19 26 972.2 - -
30/05:14pm -6.3 -17.9 -12.6 61 - E 44 63 24 34 972.7 - -
30/05:00pm -6.3 -18.2 -12.2 63 - ENE 46 63 25 34 972.7 - -
30/04:40pm -6.1 -17.7 -12.2 62 - ENE 44 67 24 36 972.9 - -
30/04:30pm -6.1 -17.5 -12.2 62 - ENE 43 52 23 28 973.4 - -
30/04:05pm -6.2 -17.2 -11.9 64 - ENE 41 61 22 33 973.6 - -
30/04:00pm -6.3 -17.3 -12.4 62 - ENE 41 57 22 31 974.0 974.2 -
30/03:52pm -6.1 -16.0 -12.2 62 - ENE 35 57 19 31 974.1 - -
30/03:30pm -6.6 -17.2 -11.9 66 - ENE 39 54 21 29 974.4 - -
30/03:00pm -6.6 -17.6 -12.1 65 - ENE 41 56 22 30 974.9 - -
30/02:56pm -6.8 -17.0 -12.1 66 - ENE 37 56 20 30 975.1 - -
30/02:30pm -6.8 -18.7 -11.5 69 - ENE 46 57 25 31 975.0 - -
30/02:13pm -7.1 -17.7 -11.4 71 - NE 39 65 21 35 975.4 - -
30/02:00pm -6.9 -15.8 -11.4 70 - NE 30 44 16 24 975.9 - -
30/01:30pm -7.2 -15.2 -10.4 78 - NE 26 35 14 19 976.5 - -
30/01:00pm -8.0 -15.2 -10.1 85 - NE 22 28 12 15 977.1 977.3 -
30/12:30pm -8.2 -16.6 -10.3 85 - NE 28 35 15 19 977.3 - -
30/12:00pm -8.5 -16.1 -10.1 88 - NE 24 32 13 17 977.6 - -
30/11:30am -8.2 -18.3 -10.4 84 - NE 37 46 20 25 977.3 - -
30/11:00am -8.1 -19.0 -10.6 82 - NE 41 52 22 28 977.4 - -
30/10:30am -8.5 -17.3 -11.0 82 - NE 30 41 16 22 977.7 - -
30/10:05am -8.4 -20.2 -10.6 84 - NE 46 65 25 35 977.5 - -
30/10:00am -8.3 -21.3 -10.5 84 - NE 52 69 28 37 977.4 977.6 -
30/09:30am -8.4 -23.8 -10.6 84 - NE 65 87 35 47 976.6 - -
30/09:00am -8.4 -21.4 -10.9 82 - NE 52 70 28 38 977.1 - -
30/08:35am -8.2 -20.8 -10.7 82 - NE 50 69 27 37 977.1 - -
30/08:30am -8.4 -21.8 -10.9 82 - NE 54 67 29 36 977.2 - -
30/08:00am -8.4 -21.4 -10.6 84 - NE 52 70 28 38 976.9 - -
30/07:46am -8.4 -20.3 -10.9 82 - NNE 46 65 25 35 977.0 - -
30/07:30am -8.6 -21.2 -11.0 83 - NNE 50 57 27 31 977.0 - -
30/07:14am -8.6 -17.1 -11.4 80 - NNE 28 46 15 25 977.6 - -
30/07:00am -8.6 -17.1 -11.4 80 - NNE 28 35 15 19 977.9 978.1 -
30/06:30am -9.0 -17.5 -11.3 83 - NNE 28 35 15 19 978.1 - -
30/06:00am -8.8 -18.1 -11.8 79 - NNE 32 41 17 22 978.2 - -
30/05:30am -9.0 -17.1 -12.1 78 - NE 26 39 14 21 978.8 - -
30/05:00am -9.0 -17.6 -12.6 75 - NE 28 35 15 19 979.0 - -
30/04:30am -9.9 -17.0 -13.2 77 - NE 20 24 11 13 979.3 - -
30/04:00am -10.5 -16.6 -13.1 81 - NNE 15 17 8 9 979.6 979.8 -
30/03:30am -10.4 -16.2 -14.3 73 - ENE 13 19 7 10 979.9 - -
30/03:00am -10.4 -15.8 -14.8 70 - E 11 19 6 10 980.1 - -
30/02:30am -10.6 -16.1 -15.0 70 - E 11 20 6 11 980.4 - -
30/02:00am -11.4 -17.3 -15.8 70 - E 13 15 7 8 980.8 - -
30/01:30am -11.6 -17.5 -16.1 69 - E 13 20 7 11 981.2 - -
30/01:00am -11.9 -17.4 -16.6 68 - E 11 15 6 8 981.4 981.6 -
30/12:30am -12.4 -18.3 -16.7 70 - SE 13 15 7 8 981.5 - -
30/12:00am -12.3 -18.6 -16.6 70 - ENE 15 17 8 9 981.8 - -
 
Date/Time
EST
Temp
°C
App
Temp
°C
Dew
Point
°C
Rel
Hum
%
Delta-T
°C
Wind Press
QNH
hPa
Press
MSL
hPa
Rain since
9am
mm
Dir  Spd
km/h
Gust
km/h
Spd
kts
Gust
kts
29/11:30pm -12.6 -19.3 -17.3 68 - ENE 17 19 9 10 981.9 - -
29/11:00pm -13.0 -19.3 -17.8 67 - E 15 17 8 9 982.2 - -
29/10:30pm -13.2 -19.5 -17.8 68 - E 15 17 8 9 982.5 - -
29/10:00pm -13.7 -20.4 -18.1 69 - E 17 19 9 10 982.6 982.8 -
29/09:30pm -14.0 -20.4 -18.3 70 - ESE 15 17 8 9 982.8 - -
29/09:00pm -13.8 -19.8 -18.6 67 - ESE 13 17 7 9 982.4 - -
29/08:30pm -14.1 -20.5 -18.9 67 - ESE 15 17 8 9 983.1 - -
29/08:00pm -14.5 -20.9 -18.7 70 - E 15 17 8 9 983.2 - -
29/07:30pm -15.0 -21.4 -19.1 71 - E 15 17 8 9 983.2 - -
29/07:00pm -15.2 -20.9 -19.6 69 - ESE 11 15 6 8 983.4 983.6 -
29/06:30pm -15.7 -21.0 -20.1 69 - ESE 9 13 5 7 983.4 - -
29/06:00pm -16.0 -22.4 -20.2 70 - E 15 17 8 9 983.5 - -
29/05:30pm -15.8 -21.5 -20.3 68 - ENE 11 13 6 7 983.7 - -
29/05:00pm -16.2 -22.6 -20.4 70 - E 15 17 8 9 983.7 - -
29/04:30pm -16.1 -22.9 -20.8 67 - E 17 17 9 9 983.8 - -
29/04:00pm -17.0 -23.5 -21.5 68 - ENE 15 17 8 9 984.0 984.2 -
29/03:30pm -17.2 -24.1 -21.8 67 - ENE 17 17 9 9 984.0 - -
29/03:00pm -17.6 -24.1 -22.2 67 - ENE 15 19 8 10 983.9 - -
29/02:30pm -17.9 -23.7 -22.5 67 - ENE 11 13 6 7 983.9 - -
29/02:00pm -17.8 -23.5 -22.1 69 - ENE 11 13 6 7 984.0 - -
29/01:30pm -18.1 -23.9 -22.4 69 - NE 11 11 6 6 983.9 - -
29/01:00pm -17.9 -24.4 -22.3 68 - ENE 15 17 8 9 983.6 983.8 -
29/12:30pm -18.0 -24.5 -22.3 69 - ENE 15 19 8 10 983.6 - -
29/12:00pm -18.4 -24.6 -23.0 67 - ENE 13 15 7 8 983.6 - -
29/11:30am -18.6 -25.1 -22.8 69 - ENE 15 17 8 9 983.6 - -
29/11:00am -18.3 -24.4 -22.7 68 - ENE 13 15 7 8 983.6 - -
29/10:30am -18.1 -25.0 -22.5 68 - ENE 17 19 9 10 983.6 - -
29/10:00am -18.7 -25.6 -22.9 69 - E 17 20 9 11 983.7 983.9 -
29/09:30am -18.2 -24.3 -22.8 67 - ENE 13 15 7 8 983.7 - -
29/09:00am -18.0 -24.1 -22.6 67 - ENE 13 17 7 9 983.9 - -
29/08:30am -17.7 -23.8 -22.7 65 - E 13 17 7 9 984.0 - -
29/08:00am -17.7 -23.9 -23.2 62 - E 13 15 7 8 984.2 - -
29/07:30am -18.2 -25.1 -23.5 63 - E 17 17 9 9 984.2 - -
29/07:00am -18.2 -24.4 -23.5 63 - E 13 13 7 7 984.4 984.6 -
29/06:30am -18.5 -24.7 -23.6 64 - E 13 15 7 8 984.5 - -
29/06:00am -18.7 -24.9 -23.3 67 - E 13 15 7 8 984.6 - -
29/05:30am -18.1 -23.9 -23.0 65 - E 11 13 6 7 984.8 - -
29/05:00am -18.1 -23.9 -23.4 63 - E 11 13 6 7 984.9 - -
29/04:30am -18.1 -23.9 -23.9 60 - E 11 13 6 7 985.1 - -
29/04:00am -18.2 -24.4 -24.2 59 - E 13 15 7 8 985.1 985.3 -
29/03:30am -17.8 -24.0 -24.2 57 - E 13 17 7 9 985.2 - -
29/03:00am -18.4 -25.0 -24.6 58 - E 15 17 8 9 985.3 - -
29/02:30am -18.6 -25.2 -25.0 57 - ESE 15 17 8 9 985.7 - -
29/02:00am -17.9 -24.5 -24.5 56 - E 15 17 8 9 985.9 - -
29/01:30am -18.1 -25.1 -25.1 54 - E 17 19 9 10 986.0 - -
29/01:00am -18.5 -25.5 -25.5 54 - E 17 20 9 11 986.3 986.6 -
29/12:30am -18.1 -25.1 -25.5 52 - E 17 17 9 9 986.5 - -
29/12:00am -18.2 -24.8 -25.6 52 - ESE 15 15 8 8 986.8 - -
 
Date/Time
EST
Temp
°C
App
Temp
°C
Dew
Point
°C
Rel
Hum
%
Delta-T
°C
Wind Press
QNH
hPa
Press
MSL
hPa
Rain since
9am
mm
Dir  Spd
km/h
Gust
km/h
Spd
kts
Gust
kts
28/11:30pm -17.9 -23.7 -25.8 50 - ESE 11 13 6 7 986.9 - -
28/11:00pm -17.3 -24.3 -25.2 50 - E 17 20 9 11 987.1 - -
28/10:30pm -17.6 -23.8 -25.9 48 - ESE 13 15 7 8 987.3 - -
28/10:00pm -17.4 -23.2 -25.5 49 - ESE 11 15 6 8 987.5 987.8 -
28/09:30pm -17.0 -22.8 -24.7 51 - ESE 11 15 6 8 987.7 - -
28/09:00pm -17.9 -24.5 -24.5 56 - SE 15 17 8 9 987.5 - -
28/08:30pm -17.9 -24.9 -24.7 55 - SE 17 20 9 11 988.1 - -
28/08:00pm -18.1 -25.1 -24.9 55 - SE 17 20 9 11 988.3 - -
28/07:30pm -18.1 -25.1 -24.9 55 - SSE 17 19 9 10 988.7 - -
28/07:00pm -18.1 -25.1 -25.3 53 - SE 17 20 9 11 988.9 989.2 -
28/06:30pm -17.9 -24.1 -25.1 53 - SE 13 17 7 9 989.1 - -
28/06:00pm -17.7 -23.9 -25.3 51 - SE 13 17 7 9 989.3 - -
28/05:30pm -18.0 -24.2 -25.6 51 - ESE 13 17 7 9 989.3 - -
28/05:00pm -18.1 -25.5 -26.6 47 - SE 19 20 10 11 989.7 - -
28/04:30pm -17.1 -22.6 -26.9 42 - E 9 13 5 7 989.9 - -
28/04:00pm -19.4 -26.0 -26.3 54 - E 15 17 8 9 990.0 990.3 -
28/03:30pm -19.5 -26.5 -26.4 54 - SE 17 20 9 11 990.1 - -
28/03:00pm -19.5 -26.5 -26.4 54 - ESE 17 20 9 11 990.4 - -
28/02:30pm -19.8 -26.8 -26.7 54 - SE 17 24 9 13 990.4 - -
28/02:00pm -20.3 -25.8 -27.0 55 - SSE 9 15 5 8 990.5 - -
28/01:30pm -21.8 -28.1 -27.8 58 - E 13 17 7 9 990.8 - -
28/01:00pm -20.5 -27.1 -26.8 57 - ESE 15 19 8 10 990.8 991.1 -
28/12:30pm -20.2 -27.6 -26.7 56 - SE 19 24 10 13 990.8 - -
28/12:00pm -20.4 -28.0 -26.9 56 - SE 20 26 11 14 990.8 - -

Other Formats:

Comma delimited format used in spreadsheet applications
http://www.bom.gov.au/fwo/IDT60803/IDT60803.89571.axf

JavaScript Object Notation format (JSON) in row-major order
http://www.bom.gov.au/fwo/IDT60803/IDT60803.89571.json